Time;durP1;ratioP1;P1;durP2;ratioP2;P2;SDS_P1;SDS_P2;PMS_P1;PMS_P2;Temp;Humidity;BMP_temperature;BMP_pressure;BME280_temperature;BME280_humidity;BME280_pressure;Samples;Min_cycle;Max_cycle;Signal;HPM_P1;HPM_P2
2020/12/14 00:00:39;;;;;;;;;;;;;;;-2.90;100.00;101290.13;1902454;75;20405;-35
2020/12/14 00:03:07;;;;;;;;;;;;;;;-2.89;100.00;101294.42;1902683;75;20317;-36
2020/12/14 00:05:35;;;;;;;;;;;;;;;-2.89;100.00;101300.83;1902172;75;20250;-35
2020/12/14 00:08:03;;;;;;;;;;;;;;;-2.88;100.00;101301.72;1902406;75;20235;-36
2020/12/14 00:10:30;;;;;;;;;;;;;;;-2.88;100.00;101296.59;1902510;75;20270;-35
2020/12/14 00:12:58;;;;;;;;;;;;;;;-2.89;100.00;101302.55;1902395;75;20175;-39
2020/12/14 00:15:28;;;;;;;;;;;;;;;-2.91;100.00;101305.04;1902380;75;20400;-36
2020/12/14 00:17:55;;;;;;;;;;;;;;;-2.91;100.00;101305.04;1902359;75;20184;-37
2020/12/14 00:20:23;;;;;;;;;;;;;;;-2.92;100.00;101305.84;1902462;75;20393;-35
2020/12/14 00:22:51;;;;;;;;;;;;;;;-2.92;100.00;101304.55;1902433;75;20144;-35
2020/12/14 00:25:19;;;;;;;;;;;;;;;-2.94;100.00;101304.00;1902376;75;20120;-37
2020/12/14 00:27:46;;;;;;;;;;;;;;;-2.95;100.00;101305.68;1902321;75;20298;-34
2020/12/14 00:30:15;;;;;;;;;;;;;;;-2.96;100.00;101290.24;1902489;75;20148;-36
2020/12/14 00:32:42;;;;;;;;;;;;;;;-2.96;100.00;101298.82;1902384;75;20151;-36
2020/12/14 00:35:10;;;;;;;;;;;;;;;-2.97;100.00;101296.17;1902261;75;20160;-35
2020/12/14 00:37:38;;;;;;;;;;;;;;;-2.98;100.00;101284.16;1902649;75;20132;-35
2020/12/14 00:40:06;;;;;;;;;;;;;;;-2.98;100.00;101292.73;1902412;75;20179;-36
2020/12/14 00:42:33;;;;;;;;;;;;;;;-2.98;100.00;101292.73;1902253;75;20226;-34
2020/12/14 00:45:01;;;;;;;;;;;;;;;-2.99;100.00;101279.83;1902349;75;20128;-36
2020/12/14 00:47:29;;;;;;;;;;;;;;;-3.00;100.00;101280.22;1902604;75;20183;-35
2020/12/14 00:49:57;;;;;;;;;;;;;;;-3.00;100.00;101281.51;1902439;75;20421;-36
2020/12/14 00:52:25;;;;;;;;;;;;;;;-2.99;100.00;101277.27;1902563;75;20271;-35
2020/12/14 00:54:53;;;;;;;;;;;;;;;-3.00;100.00;101277.66;1902293;75;20231;-35
2020/12/14 00:57:21;;;;;;;;;;;;;;;-2.99;100.00;101282.39;1902338;75;20390;-36
2020/12/14 00:59:49;;;;;;;;;;;;;;;-3.00;100.00;101270.37;1902174;75;20219;-35
2020/12/14 01:02:22;;;;;;;;;;;;;;;-3.00;100.00;101276.38;1902476;75;20133;-39
2020/12/14 01:04:47;;;;;;;;;;;;;;;-3.00;100.00;101271.25;1901876;75;20144;-36
2020/12/14 01:07:15;;;;;;;;;;;;;;;-3.02;100.00;101269.44;1902322;75;20402;-36
2020/12/14 01:09:42;;;;;;;;;;;;;;;-3.01;100.00;101271.17;1902310;75;20219;-35
2020/12/14 01:12:10;;;;;;;;;;;;;;;-3.03;100.00;101270.24;1902501;75;20430;-36
2020/12/14 01:14:38;;;;;;;;;;;;;;;-3.04;100.00;101266.80;1902210;75;20240;-36
2020/12/14 01:17:06;;;;;;;;;;;;;;;-3.03;100.00;101275.38;1902296;75;20485;-37
2020/12/14 01:19:35;;;;;;;;;;;;;;;-3.04;100.00;101277.45;1902276;75;20517;-37
2020/12/14 01:22:03;;;;;;;;;;;;;;;-3.04;100.00;101276.17;1902230;75;20128;-39
2020/12/14 01:24:31;;;;;;;;;;;;;;;-3.06;100.00;101276.09;1902304;75;20124;-36
2020/12/14 01:26:59;;;;;;;;;;;;;;;-3.06;100.00;101261.11;1902488;75;20120;-39
2020/12/14 01:29:27;;;;;;;;;;;;;;;-3.07;100.00;101267.92;1902304;75;20183;-38
2020/12/14 01:31:54;;;;;;;;;;;;;;;-3.07;100.00;101270.48;1902189;75;20140;-38
2020/12/14 01:34:22;;;;;;;;;;;;;;;-3.07;100.00;101267.04;1902236;75;20236;-37
2020/12/14 01:36:50;;;;;;;;;;;;;;;-3.07;100.00;101269.60;1902210;75;20262;-38
2020/12/14 01:39:18;;;;;;;;;;;;;;;-3.07;100.00;101263.19;1902555;75;20132;-38
2020/12/14 01:41:46;;;;;;;;;;;;;;;-3.08;100.00;101261.03;1902386;75;20325;-38
2020/12/14 01:44:13;;;;;;;;;;;;;;;-3.08;100.00;101261.43;1902365;75;20136;-38
2020/12/14 01:46:43;;;;;;;;;;;;;;;-3.07;100.00;101246.52;1902414;75;20128;-37
2020/12/14 01:49:11;;;;;;;;;;;;;;;-3.08;100.00;101246.05;1902287;75;20133;-38
2020/12/14 01:51:39;;;;;;;;;;;;;;;-3.08;100.00;101250.77;1902324;75;20195;-39
2020/12/14 01:54:21;;;;;;;;;;;;;;;-3.08;100.00;101249.89;1902417;75;20175;-39
2020/12/14 01:56:48;;;;;;;;;;;;;;;-3.07;100.00;101251.66;1902237;75;20151;-39
2020/12/14 01:59:17;;;;;;;;;;;;;;;-3.07;100.00;101238.42;1902272;75;20468;-38
2020/12/14 02:01:44;;;;;;;;;;;;;;;-3.06;100.00;101240.19;1902353;75;20148;-38
2020/12/14 02:04:12;;;;;;;;;;;;;;;-3.05;100.00;101237.22;1902243;75;20132;-39
2020/12/14 02:06:40;;;;;;;;;;;;;;;-3.05;99.97;101226.97;1902332;75;20291;-37
2020/12/14 02:09:08;;;;;;;;;;;;;;;-3.05;99.95;101211.58;1902214;75;20140;-38
2020/12/14 02:11:35;;;;;;;;;;;;;;;-3.06;99.88;101234.18;1902424;75;20179;-38
2020/12/14 02:14:03;;;;;;;;;;;;;;;-3.07;99.84;101226.89;1902186;75;20195;-38
2020/12/14 02:16:31;;;;;;;;;;;;;;;-3.06;99.79;101231.62;1902159;75;20171;-39
2020/12/14 02:18:59;;;;;;;;;;;;;;;-3.06;99.75;101232.50;1902493;75;20366;-38
2020/12/14 02:21:27;;;;;;;;;;;;;;;-3.06;99.70;101231.22;1902167;75;20124;-41
2020/12/14 02:26:50;;;;;;;;;;;;;;;-3.02;99.62;101217.71;1916887;74;20178;-39
2020/12/14 02:29:19;;;;;;;;;;;;;;;-3.05;99.59;101230.41;1879504;75;20140;-39
2020/12/14 02:31:47;;;;;;;;;;;;;;;-3.05;99.59;101240.67;1903110;75;20386;-38
2020/12/14 02:34:14;;;;;;;;;;;;;;;-3.05;99.56;101233.37;1902987;75;20199;-39
2020/12/14 02:36:42;;;;;;;;;;;;;;;-3.06;99.53;101226.09;1903017;75;20124;-38
2020/12/14 02:39:10;;;;;;;;;;;;;;;-3.06;99.46;101242.75;1902883;75;20132;-38
2020/12/14 02:41:37;;;;;;;;;;;;;;;-3.06;99.44;101250.85;1903069;75;20834;-38
2020/12/14 02:44:05;;;;;;;;;;;;;;;-3.08;99.43;101241.80;1903122;75;20172;-38
2020/12/14 02:46:32;;;;;;;;;;;;;;;-3.08;99.41;101230.66;1903072;75;20128;-37
2020/12/14 02:49:00;;;;;;;;;;;;;;;-3.11;99.38;101222.44;1903077;75;20167;-37
2020/12/14 02:51:28;;;;;;;;;;;;;;;-3.10;99.36;101218.19;1903118;75;20382;-38
2020/12/14 02:53:55;;;;;;;;;;;;;;;-3.10;99.37;101228.05;1903285;75;20160;-39
2020/12/14 02:56:23;;;;;;;;;;;;;;;-3.10;99.35;101224.20;1903067;75;20140;-38
2020/12/14 02:58:51;;;;;;;;;;;;;;;-3.10;99.36;101231.89;1903062;75;20538;-40
2020/12/14 03:01:20;;;;;;;;;;;;;;;-3.09;99.35;101235.34;1903001;75;20171;-37
2020/12/14 03:03:48;;;;;;;;;;;;;;;-3.09;99.33;101228.92;1903143;75;20379;-37
2020/12/14 03:06:16;;;;;;;;;;;;;;;-3.10;99.30;101223.32;1903153;75;20536;-39
2020/12/14 03:08:43;;;;;;;;;;;;;;;-3.10;99.27;101234.86;1903190;75;20143;-40
2020/12/14 03:11:14;;;;;;;;;;;;;;;-3.11;99.27;101236.55;1902938;75;20140;-38
2020/12/14 03:13:40;;;;;;;;;;;;;;;-3.11;99.25;101240.39;1903341;75;20179;-38
2020/12/14 03:16:08;;;;;;;;;;;;;;;-3.10;99.24;101241.27;1902927;75;20203;-40
2020/12/14 03:18:36;;;;;;;;;;;;;;;-3.12;99.19;101245.04;1903251;75;20401;-40
2020/12/14 03:21:07;;;;;;;;;;;;;;;-3.12;99.18;101247.60;1902774;75;20147;-38
2020/12/14 03:23:35;;;;;;;;;;;;;;;-3.11;99.20;101249.77;1903072;75;20187;-38
2020/12/14 03:26:03;;;;;;;;;;;;;;;-3.12;99.16;101236.06;1903201;75;20176;-41
2020/12/14 03:28:30;;;;;;;;;;;;;;;-3.13;99.14;101247.13;1897169;75;20172;-37
2020/12/14 03:30:58;;;;;;;;;;;;;;;-3.15;99.12;101235.05;1868125;77;20213;-38
2020/12/14 03:33:26;;;;;;;;;;;;;;;-3.15;99.15;101244.88;1868122;77;20134;-38
2020/12/14 03:35:54;;;;;;;;;;;;;;;-3.15;99.14;101242.75;1867818;77;20483;-39
2020/12/14 03:38:21;;;;;;;;;;;;;;;-3.13;99.16;101248.80;1867504;77;20163;-38
2020/12/14 03:40:50;;;;;;;;;;;;;;;-3.13;99.19;101248.41;1867440;77;20541;-38
2020/12/14 03:43:18;;;;;;;;;;;;;;;-3.12;99.19;101227.48;1867235;77;20625;-39
2020/12/14 03:45:48;;;;;;;;;;;;;;;-3.13;99.21;101235.58;1867417;77;20265;-34
2020/12/14 03:48:18;;;;;;;;;;;;;;;-3.13;99.20;101223.16;1867303;77;20249;-38
2020/12/14 03:50:48;;;;;;;;;;;;;;;-3.14;99.22;101235.10;1867008;77;20161;-38
2020/12/14 03:53:16;;;;;;;;;;;;;;;-3.15;99.24;101212.83;1867306;77;20464;-37
2020/12/14 03:55:43;;;;;;;;;;;;;;;-3.14;99.26;101217.16;1867187;77;20162;-40
2020/12/14 03:58:11;;;;;;;;;;;;;;;-3.15;99.28;101220.52;1867359;77;20146;-38
2020/12/14 04:00:39;;;;;;;;;;;;;;;-3.14;99.31;101231.25;1867290;77;20150;-38
2020/12/14 04:03:08;;;;;;;;;;;;;;;-3.15;99.37;101238.47;1867417;77;20150;-37
2020/12/14 04:05:37;;;;;;;;;;;;;;;-3.15;99.39;101233.34;1867323;77;20134;-38
2020/12/14 04:08:05;;;;;;;;;;;;;;;-3.14;99.42;101233.81;1867342;77;20620;-38
2020/12/14 04:10:35;;;;;;;;;;;;;;;-3.13;99.47;101226.61;1867569;77;20153;-38
2020/12/14 04:13:03;;;;;;;;;;;;;;;-3.13;99.50;101224.45;1867232;77;20221;-42
2020/12/14 04:15:31;;;;;;;;;;;;;;;-3.13;99.54;101216.34;1867525;77;20388;-37
2020/12/14 04:17:59;;;;;;;;;;;;;;;-3.14;99.55;101199.20;1867242;77;20126;-38
2020/12/14 04:20:26;;;;;;;;;;;;;;;-3.12;99.60;101195.44;1867487;77;20391;-38
2020/12/14 04:22:54;;;;;;;;;;;;;;;-3.12;99.64;101195.44;1867441;76;20121;-39
2020/12/14 04:25:22;;;;;;;;;;;;;;;-3.12;99.69;101204.41;1867418;77;20121;-40
2020/12/14 04:27:49;;;;;;;;;;;;;;;-3.12;99.69;101214.27;1867521;77;20223;-37
2020/12/14 04:30:17;;;;;;;;;;;;;;;-3.11;99.71;101207.05;1867187;77;20220;-39
2020/12/14 04:32:46;;;;;;;;;;;;;;;-3.11;99.75;101208.34;1867318;76;20191;-35
2020/12/14 04:35:13;;;;;;;;;;;;;;;-3.12;99.76;101212.98;1867204;77;20179;-38
2020/12/14 04:37:41;;;;;;;;;;;;;;;-3.12;99.80;101229.65;1867155;77;20121;-36
2020/12/14 04:40:09;;;;;;;;;;;;;;;-3.11;99.83;101223.72;1867416;77;20199;-38
2020/12/14 04:42:37;;;;;;;;;;;;;;;-3.12;99.86;101239.91;1867263;76;20228;-38
2020/12/14 04:45:05;;;;;;;;;;;;;;;-3.11;99.90;101240.79;1867519;76;20188;-39
2020/12/14 04:47:32;;;;;;;;;;;;;;;-3.11;99.93;101247.20;1871985;75;20245;-39
2020/12/14 04:50:00;;;;;;;;;;;;;;;-3.12;99.96;101248.88;1867474;77;20185;-37
2020/12/14 04:52:28;;;;;;;;;;;;;;;-3.10;99.98;101254.97;1867186;77;20134;-39
2020/12/14 04:54:56;;;;;;;;;;;;;;;-3.11;100.00;101247.20;1867021;77;20230;-38
2020/12/14 04:57:24;;;;;;;;;;;;;;;-3.10;100.00;101243.44;1867212;77;20232;-39
2020/12/14 04:59:52;;;;;;;;;;;;;;;-3.10;100.00;101240.87;1866818;77;20182;-41
2020/12/14 05:02:20;;;;;;;;;;;;;;;-3.11;100.00;101240.39;1875819;75;20177;-38
2020/12/14 05:04:49;;;;;;;;;;;;;;;-3.11;100.00;101244.23;1867208;75;20180;-38
2020/12/14 05:07:17;;;;;;;;;;;;;;;-3.09;100.00;101255.86;1867204;75;20203;-39
2020/12/14 05:09:45;;;;;;;;;;;;;;;-3.10;100.00;101260.50;1867345;77;20180;-38
2020/12/14 05:12:19;;;;;;;;;;;;;;;-3.09;100.00;101258.02;1867377;77;20293;-38
2020/12/14 05:14:47;;;;;;;;;;;;;;;-3.09;100.00;101266.11;1867465;77;20223;-38
2020/12/14 05:17:22;;;;;;;;;;;;;;;-3.08;100.00;101267.44;1867097;77;20125;-39
2020/12/14 05:19:51;;;;;;;;;;;;;;;-3.07;100.00;101262.80;1867068;77;20230;-40
2020/12/14 05:22:19;;;;;;;;;;;;;;;-3.06;100.00;101253.41;1893711;75;20358;-41
2020/12/14 05:24:49;;;;;;;;;;;;;;;-3.06;100.00;101230.34;1902217;75;20219;-40
2020/12/14 05:27:29;;;;;;;;;;;;;;;-3.06;100.00;101234.18;1871479;75;20277;-38
2020/12/14 05:29:57;;;;;;;;;;;;;;;-3.05;100.00;101248.36;1881368;75;20209;-37
2020/12/14 05:32:25;;;;;;;;;;;;;;;-3.04;100.00;101224.48;1878071;75;20175;-39
2020/12/14 05:34:53;;;;;;;;;;;;;;;-3.03;100.00;101225.36;1870598;75;20172;-40
2020/12/14 05:37:21;;;;;;;;;;;;;;;-3.02;100.00;101219.43;1880068;75;20302;-38
2020/12/14 05:39:49;;;;;;;;;;;;;;;-3.01;100.00;101220.75;1865774;76;20197;-38
2020/12/14 05:42:18;;;;;;;;;;;;;;;-3.00;100.00;101222.52;1859409;75;20226;-37
2020/12/14 05:44:48;;;;;;;;;;;;;;;-2.98;100.00;101220.03;1867067;75;20188;-40
2020/12/14 05:47:27;;;;;;;;;;;;;;;-2.98;100.00;101235.42;1873554;75;20390;-40
2020/12/14 05:49:57;;;;;;;;;;;;;;;-2.96;100.00;101245.36;1868461;75;20232;-41
2020/12/14 05:52:34;;;;;;;;;;;;;;;-2.96;100.00;101241.51;1873377;75;20187;-40
2020/12/14 05:55:05;;;;;;;;;;;;;;;-2.96;100.00;101232.53;1869546;75;20224;-40
2020/12/14 05:57:36;;;;;;;;;;;;;;;-2.96;100.00;101244.95;1853230;75;20430;-41
2020/12/14 06:00:08;;;;;;;;;;;;;;;-2.95;100.00;101253.50;1868661;75;20180;-40
2020/12/14 06:02:36;;;;;;;;;;;;;;;-2.95;100.00;101245.80;1875191;75;20235;-39
2020/12/14 06:05:06;;;;;;;;;;;;;;;-2.94;100.00;101251.02;1869197;75;20183;-40
2020/12/14 06:07:37;;;;;;;;;;;;;;;-2.93;100.00;101253.17;1872033;75;20225;-39
2020/12/14 06:10:10;;;;;;;;;;;;;;;-2.94;100.00;101256.14;1870946;75;20166;-40
2020/12/14 06:12:45;;;;;;;;;;;;;;;-2.93;100.00;101254.05;1839222;75;20176;-40
2020/12/14 06:15:16;;;;;;;;;;;;;;;-2.92;100.00;101246.84;1864877;75;20205;-42
2020/12/14 06:17:46;;;;;;;;;;;;;;;-2.91;100.00;101261.43;1870916;75;20127;-39
2020/12/14 06:20:18;;;;;;;;;;;;;;;-2.90;100.00;101274.73;1855804;75;20218;-40
2020/12/14 06:23:01;;;;;;;;;;;;;;;-2.87;100.00;101272.30;1877916;75;20188;-41
2020/12/14 06:26:50;;;;;;;;;;;;;;;-2.79;100.00;101266.64;1893415;74;20219;-40
2020/12/14 06:29:36;;;;;;;;;;;;;;;-2.83;100.00;101273.33;1860481;75;20158;-41
2020/12/14 06:32:06;;;;;;;;;;;;;;;-2.82;100.00;101277.23;1867584;75;20270;-41
2020/12/14 06:34:38;;;;;;;;;;;;;;;-2.81;100.00;101261.03;1836168;75;20658;-40
2020/12/14 06:37:07;;;;;;;;;;;;;;;-2.77;100.00;101258.62;1866682;76;20983;-40
2020/12/14 06:39:37;;;;;;;;;;;;;;;-2.75;100.00;101260.83;1878439;75;20168;-41
2020/12/14 06:42:09;;;;;;;;;;;;;;;-2.74;100.00;101264.75;1851586;75;20207;-41
2020/12/14 06:44:47;;;;;;;;;;;;;;;-2.72;100.00;101273.81;1875033;75;20169;-41
2020/12/14 06:47:16;;;;;;;;;;;;;;;-2.70;100.00;101276.94;1870422;75;20263;-40
2020/12/14 06:49:45;;;;;;;;;;;;;;;-2.67;100.00;101274.89;1867739;75;20284;-40
2020/12/14 06:52:16;;;;;;;;;;;;;;;-2.65;100.00;101278.41;1866975;77;20166;-39
2020/12/14 06:54:46;;;;;;;;;;;;;;;-2.65;100.00;101271.59;1869670;75;20179;-40
2020/12/14 06:57:15;;;;;;;;;;;;;;;-2.63;100.00;101275.52;1869737;75;20191;-40
2020/12/14 06:59:51;;;;;;;;;;;;;;;-2.61;100.00;101273.88;1865915;77;20468;-41
2020/12/14 07:02:19;;;;;;;;;;;;;;;-2.60;100.00;101277.81;1874924;75;20136;-41
2020/12/14 07:04:47;;;;;;;;;;;;;;;-2.58;100.00;101285.59;1868191;75;20187;-41
2020/12/14 07:07:18;;;;;;;;;;;;;;;-2.56;100.00;101286.55;1875628;75;20185;-41
2020/12/14 07:09:47;;;;;;;;;;;;;;;-2.54;100.00;101283.62;1871733;75;20176;-40
2020/12/14 07:12:24;;;;;;;;;;;;;;;-2.54;100.00;101278.08;1870097;75;20368;-40
2020/12/14 07:14:54;;;;;;;;;;;;;;;-2.51;100.00;101281.20;1869589;75;20210;-42
2020/12/14 07:17:26;;;;;;;;;;;;;;;-2.49;100.00;101298.81;1867846;75;20221;-42
2020/12/14 07:19:57;;;;;;;;;;;;;;;-2.45;100.00;101300.73;1870392;75;20272;-42
2020/12/14 07:22:48;;;;;;;;;;;;;;;-2.44;100.00;101304.66;1870658;75;20384;-41
2020/12/14 07:25:22;;;;;;;;;;;;;;;-2.41;100.00;101302.62;1870237;75;20399;-41
2020/12/14 07:27:50;;;;;;;;;;;;;;;-2.35;100.00;101302.00;1871741;75;20265;-41
2020/12/14 07:30:19;;;;;;;;;;;;;;;-2.33;100.00;101296.14;1873484;75;20146;-41
2020/12/14 07:32:47;;;;;;;;;;;;;;;-2.28;100.00;101305.32;1869894;75;20475;-41
2020/12/14 07:35:16;;;;;;;;;;;;;;;-2.22;100.00;101295.32;1878226;75;20217;-46
2020/12/14 07:37:44;;;;;;;;;;;;;;;-2.21;100.00;101290.26;1873497;75;20225;-43
2020/12/14 07:40:12;;;;;;;;;;;;;;;-2.17;100.00;101290.88;1873594;75;20197;-40
2020/12/14 07:42:44;;;;;;;;;;;;;;;-2.13;100.00;101286.74;1869398;75;20188;-42
2020/12/14 07:45:21;;;;;;;;;;;;;;;-2.10;100.00;101291.59;1872640;75;20273;-42
2020/12/14 07:47:50;;;;;;;;;;;;;;;-2.08;100.00;101289.98;1870302;75;20134;-41
2020/12/14 07:50:24;;;;;;;;;;;;;;;-2.05;100.00;101296.55;1867220;75;20205;-42
2020/12/14 07:52:56;;;;;;;;;;;;;;;-2.05;100.00;101292.70;1873960;75;20225;-41
2020/12/14 07:55:30;;;;;;;;;;;;;;;-2.02;100.00;101291.94;1870781;75;20139;-41
2020/12/14 07:57:55;;;;;;;;;;;;;;;-1.99;100.00;101292.48;1871301;75;20190;-42
2020/12/14 08:00:24;;;;;;;;;;;;;;;-1.97;100.00;101291.75;1866714;75;20197;-43
2020/12/14 08:03:00;;;;;;;;;;;;;;;-1.93;100.00;101297.48;1878438;75;20370;-42
2020/12/14 08:05:21;;;;;;;;;;;;;;;-1.90;100.00;101307.02;1871278;75;20248;-43
2020/12/14 08:07:54;;;;;;;;;;;;;;;-1.88;100.00;101294.70;1866629;77;20290;-41
2020/12/14 08:10:30;;;;;;;;;;;;;;;-1.85;100.00;101289.70;1871649;75;20178;-40
2020/12/14 08:12:52;;;;;;;;;;;;;;;-1.83;100.00;101291.02;1870868;75;20269;-43
2020/12/14 08:15:23;;;;;;;;;;;;;;;-1.81;100.00;101276.56;1842384;75;20160;-42
2020/12/14 08:17:53;;;;;;;;;;;;;;;-1.80;100.00;101271.89;1858777;75;20532;-42
2020/12/14 08:20:29;;;;;;;;;;;;;;;-1.78;100.00;101269.88;1868365;75;20196;-41
2020/12/14 08:22:57;;;;;;;;;;;;;;;-1.74;100.00;101264.03;1866666;75;20175;-42
2020/12/14 08:25:26;;;;;;;;;;;;;;;-1.71;100.00;101256.87;1870915;75;20310;-41
2020/12/14 08:27:59;;;;;;;;;;;;;;;-1.69;100.00;101254.81;1867421;75;20193;-42
2020/12/14 08:30:27;;;;;;;;;;;;;;;-1.65;100.00;101267.41;1876638;75;20276;-41
2020/12/14 08:33:13;;;;;;;;;;;;;;;-1.64;100.00;101270.41;1878579;75;20189;-43
2020/12/14 08:35:44;;;;;;;;;;;;;;;-1.64;100.00;101269.12;1866269;75;20273;-41
2020/12/14 08:38:14;;;;;;;;;;;;;;;-1.64;100.00;101264.88;1870974;75;20207;-41
2020/12/14 08:40:53;;;;;;;;;;;;;;;-1.64;100.00;101258.44;1869797;75;20177;-42
2020/12/14 08:43:21;;;;;;;;;;;;;;;-1.61;100.00;101261.16;1882427;75;20246;-41
2020/12/14 08:46:09;;;;;;;;;;;;;;;-1.60;100.00;101259.47;1869180;75;21057;-42
2020/12/14 08:48:46;;;;;;;;;;;;;;;-1.59;100.00;101250.95;1869408;75;20166;-51
2020/12/14 08:51:22;;;;;;;;;;;;;;;-1.59;100.00;101249.66;1865940;76;20272;-43
2020/12/14 08:55:19;;;;;;;;;;;;;;;-1.49;100.00;101241.48;1882955;74;20314;-42
2020/12/14 08:57:47;;;;;;;;;;;;;;;-1.49;100.00;101237.63;1863862;75;20166;-42
2020/12/14 09:00:15;;;;;;;;;;;;;;;-1.47;100.00;101251.84;1864780;75;20198;-42
2020/12/14 09:02:43;;;;;;;;;;;;;;;-1.48;100.00;101241.96;1879680;75;20284;-42
2020/12/14 09:05:20;;;;;;;;;;;;;;;-1.49;100.00;101240.20;1874703;75;20189;-42
2020/12/14 09:07:48;;;;;;;;;;;;;;;-1.47;100.00;101238.98;1870404;75;20147;-50
2020/12/14 09:10:22;;;;;;;;;;;;;;;-1.48;100.00;101229.11;1882851;75;20389;-40
2020/12/14 09:12:50;;;;;;;;;;;;;;;-1.49;100.00;101227.34;1872024;75;20237;-41
2020/12/14 09:15:19;;;;;;;;;;;;;;;-1.49;100.00;101228.63;1865665;75;20158;-44
2020/12/14 09:17:48;;;;;;;;;;;;;;;-1.49;100.00;101233.77;1869630;75;21037;-43
2020/12/14 09:20:21;;;;;;;;;;;;;;;-1.48;100.00;101232.97;1868124;75;20205;-42
2020/12/14 09:22:49;;;;;;;;;;;;;;;-1.47;100.00;101229.58;1874834;75;20185;-42
2020/12/14 09:25:17;;;;;;;;;;;;;;;-1.45;100.00;101230.53;1870864;75;20185;-44
2020/12/14 09:27:44;;;;;;;;;;;;;;;-1.45;100.00;101230.94;1847912;75;20186;-40
2020/12/14 09:30:13;;;;;;;;;;;;;;;-1.45;100.00;101229.25;1872985;75;20210;-42
2020/12/14 09:32:42;;;;;;;;;;;;;;;-1.45;100.00;101226.67;1828062;75;20457;-41
2020/12/14 09:35:11;;;;;;;;;;;;;;;-1.44;100.00;101223.26;1841185;75;20135;-43
2020/12/14 09:37:40;;;;;;;;;;;;;;;-1.42;100.00;101226.78;1838492;75;20209;-42
2020/12/14 09:40:08;;;;;;;;;;;;;;;-1.43;100.00;101228.88;1871262;75;20263;-41
2020/12/14 09:42:36;;;;;;;;;;;;;;;-1.43;100.00;101228.88;1875180;75;20310;-42
2020/12/14 09:45:05;;;;;;;;;;;;;;;-1.42;100.00;101231.92;1871179;75;20130;-42
2020/12/14 09:47:33;;;;;;;;;;;;;;;-1.42;100.00;101214.33;1867346;75;20169;-41
2020/12/14 09:50:02;;;;;;;;;;;;;;;-1.44;100.00;101212.97;1878782;75;20214;-42
2020/12/14 09:52:31;;;;;;;;;;;;;;;-1.43;100.00;101216.02;1871671;75;20296;-41
2020/12/14 09:55:01;;;;;;;;;;;;;;;-1.44;100.00;101205.66;1811451;78;20265;-41
2020/12/14 09:57:30;;;;;;;;;;;;;;;-1.44;100.00;101209.12;1773237;78;20222;-41
2020/12/14 09:59:58;;;;;;;;;;;;;;;-1.43;100.00;101212.16;1838063;77;20186;-42
2020/12/14 10:02:26;;;;;;;;;;;;;;;-1.44;100.00;101215.55;1808446;78;20516;-41
2020/12/14 10:04:56;;;;;;;;;;;;;;;-1.42;100.00;101213.92;1804671;78;20192;-42
2020/12/14 10:07:24;;;;;;;;;;;;;;;-1.40;100.00;101211.42;1817918;77;20294;-44
2020/12/14 10:09:52;;;;;;;;;;;;;;;-1.36;100.00;101201.70;1795536;78;20148;-42
2020/12/14 10:12:19;;;;;;;;;;;;;;;-1.35;100.00;101208.20;1831382;77;20271;-40
2020/12/14 10:14:47;;;;;;;;;;;;;;;-1.33;100.00;101203.13;1833849;77;20262;-41
2020/12/14 10:17:15;;;;;;;;;;;;;;;-1.31;100.00;101198.90;1837749;77;20287;-38
2020/12/14 10:19:45;;;;;;;;;;;;;;;-1.29;100.00;101209.73;1834240;77;20514;-39
2020/12/14 10:22:12;;;;;;;;;;;;;;;-1.28;100.00;101205.06;1830144;77;20184;-39
2020/12/14 10:26:51;;;;;;;;;;;;;;;-1.17;100.00;101192.59;1900581;74;20631;-38
2020/12/14 10:29:21;;;;;;;;;;;;;;;-1.18;100.00;101198.99;1862191;75;20177;-38
2020/12/14 10:31:49;;;;;;;;;;;;;;;-1.15;100.00;101204.23;1841264;75;20201;-40
2020/12/14 10:34:17;;;;;;;;;;;;;;;-1.15;100.00;101199.97;1870544;75;20642;-39
2020/12/14 10:36:46;;;;;;;;;;;;;;;-1.13;100.00;101194.48;1871621;75;20206;-38
2020/12/14 10:39:14;;;;;;;;;;;;;;;-1.11;100.00;101188.09;1877767;75;20204;-39
2020/12/14 10:41:42;;;;;;;;;;;;;;;-1.11;100.00;101194.12;1869079;75;20509;-42
2020/12/14 10:44:10;;;;;;;;;;;;;;;-1.10;100.00;101193.30;1836751;76;20190;-41
2020/12/14 10:46:39;;;;;;;;;;;;;;;-1.09;100.00;101186.05;1837799;76;20224;-42
2020/12/14 10:49:10;;;;;;;;;;;;;;;-1.10;100.00;101188.56;1782501;77;20202;-42
2020/12/14 10:51:47;;;;;;;;;;;;;;;-1.08;100.00;101185.65;1798848;77;20176;-41
2020/12/14 10:54:42;;;;;;;;;;;;;;;-1.08;100.00;101194.66;1791016;77;20187;-41
2020/12/14 10:57:20;;;;;;;;;;;;;;;-1.04;100.00;101199.08;1799190;77;20433;-41
2020/12/14 10:59:49;;;;;;;;;;;;;;;-1.04;100.00;101192.66;1838219;77;20233;-42
2020/12/14 11:02:17;;;;;;;;;;;;;;;-1.01;100.00;101197.93;1835555;77;20224;-40
2020/12/14 11:04:45;;;;;;;;;;;;;;;-0.98;100.00;101197.62;1834069;77;20600;-41
2020/12/14 11:07:13;;;;;;;;;;;;;;;-0.93;100.00;101186.23;1834690;77;20218;-40
2020/12/14 11:09:41;;;;;;;;;;;;;;;-0.92;100.00;101183.69;1834789;77;20210;-42
2020/12/14 11:12:09;;;;;;;;;;;;;;;-0.93;100.00;101183.66;1809434;77;20196;-40
2020/12/14 11:14:39;;;;;;;;;;;;;;;-0.93;100.00;101187.11;1847643;77;20217;-42
2020/12/14 11:17:11;;;;;;;;;;;;;;;-0.93;100.00;101188.40;1811901;77;20193;-42
2020/12/14 11:19:41;;;;;;;;;;;;;;;-0.94;100.00;101180.61;1841676;77;20549;-42
2020/12/14 11:22:13;;;;;;;;;;;;;;;-0.95;100.00;101191.72;1790226;77;20198;-42
2020/12/14 11:24:41;;;;;;;;;;;;;;;-0.97;100.00;101190.38;1833751;77;20288;-42
2020/12/14 11:27:10;;;;;;;;;;;;;;;-0.99;100.00;101177.88;1833637;77;20267;-41
2020/12/14 11:29:39;;;;;;;;;;;;;;;-0.99;100.00;101166.71;1839501;77;20280;-42
2020/12/14 11:32:06;;;;;;;;;;;;;;;-1.00;100.00;101182.96;1834863;77;20228;-42
2020/12/14 11:34:34;;;;;;;;;;;;;;;-1.00;100.00;101176.13;1844057;76;20206;-42
2020/12/14 11:37:02;;;;;;;;;;;;;;;-0.99;100.00;101174.02;1834360;77;20303;-41
2020/12/14 11:39:30;;;;;;;;;;;;;;;-0.98;100.00;101172.30;1832515;77;20266;-42
2020/12/14 11:42:02;;;;;;;;;;;;;;;-0.97;100.00;101177.50;1834213;77;20221;-44
2020/12/14 11:44:30;;;;;;;;;;;;;;;-0.97;100.00;101177.91;1833700;77;20238;-41
2020/12/14 11:47:00;;;;;;;;;;;;;;;-0.97;100.00;101173.64;1838615;77;20178;-40
2020/12/14 11:49:27;;;;;;;;;;;;;;;-0.96;100.00;101177.09;1832194;77;20144;-42
2020/12/14 11:51:55;;;;;;;;;;;;;;;-0.95;100.00;101184.00;1832747;78;20168;-42
2020/12/14 11:54:23;;;;;;;;;;;;;;;-0.95;100.00;101181.43;1838386;77;20308;-42
2020/12/14 11:56:51;;;;;;;;;;;;;;;-0.96;100.00;101186.11;1832586;77;20195;-42
2020/12/14 11:59:20;;;;;;;;;;;;;;;-0.98;100.00;101171.89;1836421;77;20199;-57
2020/12/14 12:01:47;;;;;;;;;;;;;;;-1.00;100.00;101182.96;1831945;77;20175;-40
2020/12/14 12:04:16;;;;;;;;;;;;;;;-1.04;100.00;101167.80;1833609;77;20502;-38
2020/12/14 12:06:43;;;;;;;;;;;;;;;-1.05;100.00;101162.63;1838161;77;20179;-38
2020/12/14 12:09:14;;;;;;;;;;;;;;;-1.05;100.00;101167.77;1794607;78;20293;-40
2020/12/14 12:11:42;;;;;;;;;;;;;;;-1.06;100.00;101162.16;1831334;77;20224;-42
2020/12/14 12:14:11;;;;;;;;;;;;;;;-1.07;100.00;101162.97;1835485;77;20184;-38
2020/12/14 12:16:43;;;;;;;;;;;;;;;-1.08;100.00;101159.92;1841011;77;20192;-39
2020/12/14 12:19:14;;;;;;;;;;;;;;;-1.08;100.00;101167.64;1834851;77;20203;-39
2020/12/14 12:21:42;;;;;;;;;;;;;;;-1.09;100.00;101168.05;1832700;77;20289;-38
2020/12/14 12:24:10;;;;;;;;;;;;;;;-1.10;100.00;101157.28;1800152;77;20236;-40
2020/12/14 12:26:39;;;;;;;;;;;;;;;-1.09;100.00;101165.87;1831094;77;20596;-40
2020/12/14 12:29:07;;;;;;;;;;;;;;;-1.08;100.00;101170.21;1830712;77;20159;-39
2020/12/14 12:31:34;;;;;;;;;;;;;;;-1.08;100.00;101165.95;1820930;78;20275;-38
2020/12/14 12:34:02;;;;;;;;;;;;;;;-1.08;100.00;101158.63;1805965;78;20192;-40
2020/12/14 12:36:31;;;;;;;;;;;;;;;-1.08;100.00;101158.63;1834269;76;20265;-40
2020/12/14 12:38:59;;;;;;;;;;;;;;;-1.09;100.00;101159.45;1828876;77;20310;-50
2020/12/14 12:41:27;;;;;;;;;;;;;;;-1.09;100.00;101157.75;1829257;77;20315;-41
2020/12/14 12:43:55;;;;;;;;;;;;;;;-1.10;100.00;101164.12;1828619;77;20199;-42
2020/12/14 12:46:27;;;;;;;;;;;;;;;-1.10;100.00;101175.70;1833265;77;20259;-42